createdAt,value
2022-09-13T00:00:52.379Z,2.58
2022-09-13T00:06:17.675Z,5.12
2022-09-13T00:11:44.637Z,2.01
2022-09-13T00:17:09.398Z,1.94
2022-09-13T00:22:35.971Z,4.19
2022-09-13T00:28:00.932Z,2.11
2022-09-13T00:33:28.660Z,2.07
2022-09-13T00:38:55.720Z,2.13
2022-09-13T00:44:23.260Z,1.70
2022-09-13T00:50:08.245Z,3.09
2022-09-13T00:55:34.933Z,1.82
2022-09-13T01:01:03.022Z,1.92
2022-09-13T01:06:30.661Z,2.25
2022-09-13T01:11:57.517Z,2.73
2022-09-13T01:17:20.368Z,1.86
2022-09-13T01:22:47.246Z,2.13
2022-09-13T01:28:25.586Z,2.37
2022-09-13T01:34:11.797Z,1.86
2022-09-13T01:39:40.358Z,2.62
2022-09-13T01:45:06.949Z,2.37
2022-09-13T01:50:31.501Z,3.40
2022-09-13T01:55:54.187Z,2.34
2022-09-13T02:01:15.953Z,3.39
2022-09-13T02:06:37.885Z,1.49
2022-09-13T02:11:59.409Z,2.70
2022-09-13T02:17:25.173Z,2.80
2022-09-13T02:22:46.585Z,3.41
2022-09-13T02:28:13.636Z,2.37
2022-09-13T02:33:37.527Z,3.14
2022-09-13T02:39:04.540Z,3.19
2022-09-13T02:44:31.579Z,1.87
2022-09-13T02:49:59.567Z,3.21
2022-09-13T02:55:45.748Z,2.45
2022-09-13T03:01:11.903Z,2.67
2022-09-13T03:06:34.553Z,4.61
2022-09-13T03:12:01.136Z,3.17
2022-09-13T03:17:59.957Z,2.27
2022-09-13T03:23:26.589Z,1.79
2022-09-13T03:28:59.508Z,2.18
2022-09-13T03:34:31.929Z,2.10
2022-09-13T03:39:58.624Z,1.90
2022-09-13T03:45:26.613Z,1.74
2022-09-13T03:50:47.815Z,2.63
2022-09-13T03:56:15.137Z,2.32
2022-09-13T04:01:40.921Z,1.82
2022-09-13T04:07:07.773Z,2.97
2022-09-13T04:12:35.721Z,1.74
2022-09-13T04:18:02.135Z,1.60
2022-09-13T04:23:29.592Z,2.14
2022-09-13T04:28:57.449Z,1.75
2022-09-13T04:34:28.511Z,3.49
2022-09-13T04:39:52.481Z,2.34
2022-09-13T04:45:21.642Z,2.23
2022-09-13T04:50:48.739Z,2.09
2022-09-13T04:56:12.983Z,2.40
2022-09-13T05:01:38.718Z,2.51
2022-09-13T05:07:05.187Z,2.08
2022-09-13T05:12:29.472Z,1.85
2022-09-13T05:17:56.641Z,2.75
2022-09-13T05:23:23.239Z,3.98
2022-09-13T05:28:48.050Z,2.67
2022-09-13T05:34:12.262Z,2.82
2022-09-13T05:40:00.360Z,2.24
2022-09-13T05:45:02.958Z,2.36
2022-09-13T05:50:56.861Z,3.67
2022-09-13T05:55:55.069Z,3.12
2022-09-13T06:01:20.696Z,3.62
2022-09-13T06:06:48.572Z,2.55
2022-09-13T06:12:15.180Z,3.45
2022-09-13T06:17:41.443Z,4.82
2022-09-13T06:23:06.216Z,3.09
2022-09-13T06:28:27.665Z,4.41
2022-09-13T06:33:54.149Z,4.30
2022-09-13T06:39:17.852Z,4.80
2022-09-13T06:44:44.943Z,3.80
2022-09-13T06:50:16.644Z,5.32
2022-09-13T06:55:41.028Z,4.67
2022-09-13T07:01:05.600Z,5.41
2022-09-13T07:06:28.231Z,4.32
2022-09-13T07:11:54.767Z,3.94
2022-09-13T07:17:20.420Z,4.25
2022-09-13T07:22:49.197Z,5.59
2022-09-13T07:28:16.164Z,6.67
2022-09-13T07:33:42.756Z,6.09
2022-09-13T07:39:04.702Z,4.64
2022-09-13T07:44:26.361Z,5.58
2022-09-13T07:49:47.994Z,5.87
2022-09-13T07:55:09.976Z,4.22
2022-09-13T08:00:32.113Z,3.56
2022-09-13T08:05:59.067Z,5.47
2022-09-13T08:11:27.850Z,4.30
2022-09-13T08:16:53.708Z,3.53
2022-09-13T08:22:19.375Z,3.49
2022-09-13T08:27:46.895Z,4.84
2022-09-13T08:33:13.354Z,4.26
2022-09-13T08:38:42.285Z,4.52
2022-09-13T08:44:05.892Z,4.18
2022-09-13T08:49:28.301Z,4.16
2022-09-13T08:54:58.279Z,3.64
2022-09-13T09:00:20.656Z,5.24
2022-09-13T09:05:44.444Z,5.21
2022-09-13T09:11:11.807Z,6.28
2022-09-13T09:16:39.531Z,6.07
2022-09-13T09:22:07.446Z,4.94
2022-09-13T09:27:35.909Z,3.17
2022-09-13T09:33:01.192Z,4.30
2022-09-13T09:38:34.596Z,4.47
2022-09-13T09:43:56.774Z,3.33
2022-09-13T09:49:23.991Z,4.41
2022-09-13T09:54:51.894Z,6.86
2022-09-13T10:00:17.980Z,7.33
2022-09-13T10:05:44.125Z,3.88
2022-09-13T10:11:11.283Z,3.79
2022-09-13T10:16:33.413Z,4.79
2022-09-13T10:22:13.699Z,5.76
2022-09-13T10:27:51.234Z,5.49
2022-09-13T10:33:20.559Z,5.60
2022-09-13T10:38:47.447Z,4.61
2022-09-13T10:44:13.196Z,4.57
2022-09-13T10:49:46.618Z,6.88
2022-09-13T10:55:12.914Z,5.90
2022-09-13T11:00:51.864Z,7.74
2022-09-13T11:06:41.892Z,6.65
2022-09-13T11:12:10.250Z,5.28
2022-09-13T11:17:34.434Z,6.12
2022-09-13T11:23:25.628Z,6.15
2022-09-13T11:29:16.726Z,8.14
2022-09-13T11:34:47.912Z,8.89
2022-09-13T11:40:17.978Z,7.52
2022-09-13T11:45:56.136Z,6.89
2022-09-13T11:51:24.721Z,7.68
2022-09-13T11:56:53.515Z,5.67
2022-09-13T12:02:21.393Z,5.98
2022-09-13T12:07:48.567Z,4.16
2022-09-13T12:13:10.842Z,5.67
2022-09-13T12:18:33.019Z,6.73
2022-09-13T12:23:57.553Z,5.17
2022-09-13T12:29:21.290Z,4.75
2022-09-13T12:34:49.954Z,4.18
2022-09-13T12:40:17.829Z,4.05
2022-09-13T12:46:03.319Z,4.23
2022-09-13T12:51:37.555Z,2.50
2022-09-13T12:57:13.149Z,3.26
2022-09-13T13:02:44.536Z,4.05
2022-09-13T13:08:14.807Z,2.86
2022-09-13T13:13:49.981Z,3.63
2022-09-13T13:19:21.518Z,4.82
2022-09-13T13:24:53.354Z,2.87
2022-09-13T13:30:21.257Z,3.19
2022-09-13T13:36:07.974Z,3.26
2022-09-13T13:41:45.041Z,3.26
2022-09-13T13:47:08.769Z,3.50
2022-09-13T13:53:11.602Z,3.14
2022-09-13T13:58:39.854Z,4.68
2022-09-13T14:04:13.369Z,3.65
2022-09-13T14:10:06.486Z,2.67
2022-09-13T14:15:30.609Z,3.06
2022-09-13T14:21:06.128Z,3.32
2022-09-13T14:26:46.748Z,3.00
2022-09-13T14:32:10.787Z,2.79
2022-09-13T14:37:44.604Z,3.88
2022-09-13T14:43:14.695Z,3.71
2022-09-13T14:48:42.879Z,2.33
2022-09-13T14:54:05.260Z,2.50
2022-09-13T14:59:30.165Z,3.10
2022-09-13T15:04:56.927Z,1.83
2022-09-13T15:10:24.452Z,1.59
2022-09-13T15:15:56.604Z,5.79
2022-09-13T15:21:48.954Z,2.68
2022-09-13T15:27:10.712Z,2.24
2022-09-13T15:32:53.054Z,1.81
2022-09-13T15:38:48.218Z,1.68
2022-09-13T15:44:21.747Z,2.56
2022-09-13T15:49:49.147Z,2.13
2022-09-13T15:55:15.395Z,3.46
2022-09-13T16:00:42.271Z,2.90
2022-09-13T16:06:10.058Z,4.95
2022-09-13T16:11:36.662Z,2.85
2022-09-13T16:17:02.176Z,3.92
2022-09-13T16:22:30.555Z,3.95
2022-09-13T16:28:03.939Z,3.10
2022-09-13T16:33:27.004Z,2.12
2022-09-13T16:38:53.654Z,3.37
2022-09-13T16:44:20.148Z,3.09
2022-09-13T16:49:47.453Z,2.55
2022-09-13T16:55:13.991Z,2.84
2022-09-13T17:00:41.458Z,3.49
2022-09-13T17:06:07.185Z,3.93
2022-09-13T17:11:31.444Z,3.31
2022-09-13T17:16:57.693Z,2.86
2022-09-13T17:22:19.326Z,3.04
2022-09-13T17:27:46.659Z,4.62
2022-09-13T17:33:14.618Z,4.48
2022-09-13T17:38:39.720Z,4.48
2022-09-13T17:44:02.096Z,8.90
2022-09-13T17:49:28.886Z,7.61
2022-09-13T17:54:56.602Z,4.05
2022-09-13T18:00:23.267Z,5.94
2022-09-13T18:05:50.584Z,5.34
2022-09-13T18:11:17.465Z,5.82
2022-09-13T18:16:42.456Z,7.17
2022-09-13T18:22:09.055Z,5.36
2022-09-13T18:27:32.009Z,4.20
2022-09-13T18:32:59.774Z,5.13
2022-09-13T18:38:26.725Z,4.75
2022-09-13T18:43:55.806Z,6.28
2022-09-13T18:49:16.911Z,3.46
2022-09-13T18:54:44.011Z,3.65
2022-09-13T19:00:11.602Z,5.18
2022-09-13T19:05:37.957Z,4.01
2022-09-13T19:11:05.884Z,6.06
2022-09-13T19:16:29.419Z,4.75
2022-09-13T19:21:51.525Z,4.85
2022-09-13T19:27:19.477Z,3.88
2022-09-13T19:32:46.469Z,4.51
2022-09-13T19:38:13.120Z,4.91
2022-09-13T19:43:38.291Z,3.90
2022-09-13T19:49:00.948Z,3.59
2022-09-13T19:54:31.969Z,5.05
2022-09-13T19:59:58.424Z,4.14
2022-09-13T20:05:27.930Z,2.76
2022-09-13T20:10:48.222Z,4.37
2022-09-13T20:16:09.993Z,3.00
2022-09-13T20:21:33.818Z,4.73
2022-09-13T20:27:00.199Z,5.53
2022-09-13T20:32:26.527Z,5.04
2022-09-13T20:37:50.518Z,3.62
2022-09-13T20:43:18.603Z,4.07
2022-09-13T20:48:44.815Z,5.74
2022-09-13T20:54:11.681Z,6.75
2022-09-13T20:59:39.316Z,3.33
2022-09-13T21:05:06.663Z,2.74
2022-09-13T21:10:34.316Z,3.77
2022-09-13T21:15:56.210Z,2.75
2022-09-13T21:21:23.334Z,5.39
2022-09-13T21:26:50.529Z,2.40
2022-09-13T21:32:17.918Z,2.60
2022-09-13T21:37:45.156Z,3.39
2022-09-13T21:43:06.661Z,4.26
2022-09-13T21:48:28.477Z,2.88
2022-09-13T21:53:52.909Z,2.50
2022-09-13T21:59:17.494Z,2.95
2022-09-13T22:04:43.169Z,4.56
2022-09-13T22:10:04.694Z,1.37
2022-09-13T22:15:32.821Z,3.06
2022-09-13T22:21:00.304Z,1.78
2022-09-13T22:26:23.045Z,2.71
2022-09-13T22:31:51.270Z,2.55
2022-09-13T22:37:19.138Z,2.19
2022-09-13T22:42:45.949Z,1.69
2022-09-13T22:48:13.495Z,1.51
2022-09-13T22:53:35.028Z,0.94
2022-09-13T22:58:58.385Z,1.46
2022-09-13T23:04:22.366Z,1.75
2022-09-13T23:09:44.179Z,2.52
2022-09-13T23:15:10.079Z,2.98
2022-09-13T23:20:36.674Z,3.86
2022-09-13T23:26:02.821Z,4.48
2022-09-13T23:31:24.534Z,4.23
2022-09-13T23:36:55.536Z,4.83
2022-09-13T23:42:21.191Z,4.62
2022-09-13T23:47:46.104Z,4.15
2022-09-13T23:53:13.877Z,4.80
2022-09-13T23:58:40.665Z,3.19
